AVA9843 SKPE-SKBO
Flight info
| Callsign | AVA9843 |
|---|---|
| Flight time | 0h 28m |
| Altitude | 20000 |
| Route | TOLIM1D TOLIM TOLIM4E |
| Aircraft | A320/M-SDE3FGHIRWY/LB1 |
Departure
| Time | 2026-05-03 23:46 |
|---|---|
| Airport | Matecaña International Airport (SKPE) |
Arrival
| Time | 2026-05-04 00:15 |
|---|---|
| Airport | El Dorado International Airport (SKBO) |
| Time | Latitude | Longitude | Altitude | Speed | Heading |
|---|---|---|---|---|---|
| 2026-05-03 23:28 | 4.81490 | -75.73749 | 4426 ft | 0 kts | 342° |
| 2026-05-03 23:37 | 4.81474 | -75.73745 | 4426 ft | 4 kts | 18° |
| 2026-05-03 23:37 | 4.81458 | -75.73761 | 4426 ft | 4 kts | 75° |
| 2026-05-03 23:37 | 4.81456 | -75.73770 | 4426 ft | 0 kts | 76° |
| 2026-05-03 23:43 | 4.81459 | -75.73750 | 4430 ft | 7 kts | 81° |
| 2026-05-03 23:43 | 4.81464 | -75.73691 | 4427 ft | 12 kts | 86° |
| 2026-05-03 23:43 | 4.81479 | -75.73621 | 4427 ft | 9 kts | 73° |
| 2026-05-03 23:44 | 4.81501 | -75.73553 | 4428 ft | 11 kts | 72° |
| 2026-05-03 23:44 | 4.81486 | -75.73476 | 4429 ft | 13 kts | 144° |
| 2026-05-03 23:44 | 4.81442 | -75.73406 | 4429 ft | 14 kts | 74° |
| 2026-05-03 23:44 | 4.81477 | -75.73306 | 4428 ft | 17 kts | 74° |
| 2026-05-03 23:45 | 4.81515 | -75.73188 | 4428 ft | 19 kts | 71° |
| 2026-05-03 23:45 | 4.81557 | -75.73092 | 4429 ft | 12 kts | 37° |
| 2026-05-03 23:45 | 4.81558 | -75.73051 | 4428 ft | 5 kts | 218° |
| 2026-05-03 23:45 | 4.81546 | -75.73092 | 4431 ft | 7 kts | 251° |
| 2026-05-03 23:46 | 4.81519 | -75.73175 | 4428 ft | 31 kts | 251° |
| 2026-05-03 23:46 | 4.81373 | -75.73638 | 4431 ft | 108 kts | 252° |
| 2026-05-03 23:46 | 4.81076 | -75.74568 | 4516 ft | 161 kts | 253° |
| 2026-05-03 23:46 | 4.80733 | -75.75646 | 5271 ft | 164 kts | 253° |
| 2026-05-03 23:47 | 4.80379 | -75.76747 | 5939 ft | 168 kts | 252° |
| 2026-05-03 23:47 | 4.79999 | -75.77914 | 6205 ft | 186 kts | 252° |
| 2026-05-03 23:47 | 4.79575 | -75.79215 | 6461 ft | 202 kts | 252° |
| 2026-05-03 23:47 | 4.79132 | -75.80578 | 6874 ft | 208 kts | 252° |
| 2026-05-03 23:48 | 4.78522 | -75.81885 | 7366 ft | 210 kts | 227° |
| 2026-05-03 23:48 | 4.77245 | -75.82551 | 7760 ft | 220 kts | 186° |
| 2026-05-03 23:48 | 4.75653 | -75.82388 | 7906 ft | 241 kts | 165° |
| 2026-05-03 23:48 | 4.73996 | -75.81845 | 8139 ft | 262 kts | 160° |
| 2026-05-03 23:49 | 4.72218 | -75.81159 | 8458 ft | 283 kts | 159° |
| 2026-05-03 23:49 | 4.70345 | -75.80457 | 9104 ft | 290 kts | 161° |
| 2026-05-03 23:49 | 4.68383 | -75.79901 | 9859 ft | 294 kts | 166° |
| 2026-05-03 23:49 | 4.66358 | -75.79448 | 10330 ft | 307 kts | 168° |
| 2026-05-03 23:50 | 4.64207 | -75.79035 | 10504 ft | 329 kts | 169° |
| 2026-05-03 23:50 | 4.62681 | -75.78792 | 10754 ft | 337 kts | 171° |
| 2026-05-03 23:50 | 4.59534 | -75.78373 | 11565 ft | 343 kts | 172° |
| 2026-05-03 23:50 | 4.57145 | -75.78076 | 12218 ft | 346 kts | 171° |
| 2026-05-03 23:51 | 4.54776 | -75.77776 | 12855 ft | 349 kts | 171° |
| 2026-05-03 23:51 | 4.52355 | -75.77458 | 13492 ft | 352 kts | 170° |
| 2026-05-03 23:51 | 4.49970 | -75.76926 | 14063 ft | 352 kts | 157° |
| 2026-05-03 23:51 | 4.47797 | -75.75791 | 14586 ft | 351 kts | 142° |
| 2026-05-03 23:52 | 4.46018 | -75.74160 | 15107 ft | 352 kts | 128° |
| 2026-05-03 23:52 | 4.44694 | -75.72091 | 15637 ft | 353 kts | 114° |
| 2026-05-03 23:52 | 4.43874 | -75.69762 | 16171 ft | 355 kts | 107° |
| 2026-05-03 23:52 | 4.43141 | -75.67392 | 16717 ft | 358 kts | 107° |
| 2026-05-03 23:53 | 4.42395 | -75.65001 | 17223 ft | 360 kts | 106° |
| 2026-05-03 23:53 | 4.41639 | -75.62593 | 17774 ft | 363 kts | 107° |
| 2026-05-03 23:53 | 4.40878 | -75.60174 | 18335 ft | 365 kts | 107° |
| 2026-05-03 23:53 | 4.40119 | -75.57763 | 18821 ft | 368 kts | 107° |
| 2026-05-03 23:54 | 4.39344 | -75.55303 | 19281 ft | 371 kts | 107° |
| 2026-05-03 23:54 | 4.38701 | -75.52778 | 19729 ft | 374 kts | 98° |
| 2026-05-03 23:54 | 4.38591 | -75.50160 | 19999 ft | 376 kts | 86° |
| 2026-05-03 23:54 | 4.39045 | -75.47625 | 20074 ft | 370 kts | 74° |
| 2026-05-03 23:55 | 4.40024 | -75.45265 | 20090 ft | 365 kts | 63° |
| 2026-05-03 23:55 | 4.41271 | -75.43045 | 20082 ft | 364 kts | 62° |
| 2026-05-03 23:55 | 4.42517 | -75.40819 | 20071 ft | 364 kts | 62° |
| 2026-05-03 23:55 | 4.43754 | -75.38602 | 20064 ft | 364 kts | 62° |
| 2026-05-03 23:56 | 4.44573 | -75.37131 | 20058 ft | 364 kts | 63° |
| 2026-05-03 23:56 | 4.46204 | -75.34194 | 20046 ft | 364 kts | 62° |
| 2026-05-03 23:56 | 4.47436 | -75.31968 | 20033 ft | 363 kts | 63° |
| 2026-05-03 23:56 | 4.48664 | -75.29752 | 20023 ft | 363 kts | 63° |
| 2026-05-03 23:57 | 4.49477 | -75.28287 | 20017 ft | 363 kts | 63° |
| 2026-05-03 23:57 | 4.50709 | -75.26064 | 20008 ft | 363 kts | 63° |
| 2026-05-03 23:57 | 4.52334 | -75.23141 | 20000 ft | 363 kts | 62° |
| 2026-05-03 23:57 | 4.53166 | -75.21642 | 19994 ft | 362 kts | 62° |
| 2026-05-03 23:58 | 4.54379 | -75.19459 | 19993 ft | 362 kts | 62° |
| 2026-05-03 23:58 | 4.55609 | -75.17247 | 19998 ft | 362 kts | 62° |
| 2026-05-03 23:58 | 4.56839 | -75.15041 | 19999 ft | 362 kts | 62° |
| 2026-05-03 23:58 | 4.58070 | -75.12830 | 20007 ft | 362 kts | 62° |
| 2026-05-03 23:59 | 4.59299 | -75.10618 | 20013 ft | 362 kts | 62° |
| 2026-05-03 23:59 | 4.60509 | -75.08436 | 20023 ft | 362 kts | 62° |
| 2026-05-03 23:59 | 4.61734 | -75.06223 | 20030 ft | 362 kts | 62° |
| 2026-05-03 23:59 | 4.62956 | -75.04021 | 20039 ft | 362 kts | 62° |
| 2026-05-04 00:00 | 4.64182 | -75.01812 | 20046 ft | 362 kts | 62° |
| 2026-05-04 00:00 | 4.65407 | -74.99609 | 20056 ft | 362 kts | 62° |
| 2026-05-04 00:00 | 4.66630 | -74.97413 | 19897 ft | 356 kts | 62° |
| 2026-05-04 00:00 | 4.67809 | -74.95295 | 19682 ft | 348 kts | 62° |
| 2026-05-04 00:01 | 4.68981 | -74.93190 | 19467 ft | 341 kts | 62° |
| 2026-05-04 00:01 | 4.70122 | -74.91132 | 19189 ft | 336 kts | 63° |
| 2026-05-04 00:01 | 4.71255 | -74.89085 | 18783 ft | 335 kts | 63° |
| 2026-05-04 00:01 | 4.72386 | -74.87037 | 18366 ft | 335 kts | 63° |
| 2026-05-04 00:02 | 4.73517 | -74.84993 | 17910 ft | 334 kts | 63° |
| 2026-05-04 00:02 | 4.74649 | -74.82963 | 17498 ft | 332 kts | 61° |
| 2026-05-04 00:02 | 4.76075 | -74.81176 | 17092 ft | 334 kts | 43° |
| 2026-05-04 00:02 | 4.78071 | -74.79975 | 16787 ft | 335 kts | 22° |
| 2026-05-04 00:03 | 4.80338 | -74.79550 | 16781 ft | 332 kts | 3° |
| 2026-05-04 00:03 | 4.82647 | -74.79774 | 16789 ft | 333 kts | 355° |
| 2026-05-04 00:03 | 4.84912 | -74.79815 | 16562 ft | 327 kts | 12° |
| 2026-05-04 00:03 | 4.87038 | -74.79116 | 16315 ft | 319 kts | 32° |
| 2026-05-04 00:04 | 4.88769 | -74.77765 | 16055 ft | 313 kts | 51° |
| 2026-05-04 00:04 | 4.89938 | -74.75952 | 15815 ft | 308 kts | 69° |
| 2026-05-04 00:04 | 4.90446 | -74.73889 | 15587 ft | 305 kts | 87° |
| 2026-05-04 00:04 | 4.90502 | -74.71763 | 15368 ft | 305 kts | 89° |
| 2026-05-04 00:05 | 4.90551 | -74.69637 | 15145 ft | 304 kts | 89° |
| 2026-05-04 00:05 | 4.90606 | -74.67522 | 14918 ft | 304 kts | 89° |
| 2026-05-04 00:05 | 4.90664 | -74.65432 | 14692 ft | 302 kts | 89° |
| 2026-05-04 00:05 | 4.90721 | -74.63328 | 14466 ft | 300 kts | 89° |
| 2026-05-04 00:06 | 4.90775 | -74.61232 | 14251 ft | 300 kts | 89° |
| 2026-05-04 00:06 | 4.90828 | -74.59143 | 14032 ft | 299 kts | 89° |
| 2026-05-04 00:06 | 4.90881 | -74.57055 | 13793 ft | 299 kts | 89° |
| 2026-05-04 00:06 | 4.90935 | -74.54968 | 13545 ft | 299 kts | 89° |
| 2026-05-04 00:07 | 4.90990 | -74.52887 | 13300 ft | 299 kts | 89° |
| 2026-05-04 00:07 | 4.91042 | -74.50808 | 13100 ft | 296 kts | 89° |
| 2026-05-04 00:07 | 4.91092 | -74.48795 | 12981 ft | 288 kts | 89° |
| 2026-05-04 00:07 | 4.91143 | -74.46817 | 12859 ft | 277 kts | 89° |
| 2026-05-04 00:08 | 4.91191 | -74.44934 | 12873 ft | 263 kts | 89° |
| 2026-05-04 00:08 | 4.91082 | -74.43150 | 12881 ft | 251 kts | 102° |
| 2026-05-04 00:08 | 4.90499 | -74.41511 | 12904 ft | 249 kts | 118° |
| 2026-05-04 00:08 | 4.89480 | -74.40120 | 12914 ft | 249 kts | 138° |
| 2026-05-04 00:09 | 4.87996 | -74.39225 | 12935 ft | 250 kts | 148° |
| 2026-05-04 00:09 | 4.86758 | -74.38073 | 12948 ft | 247 kts | 120° |
| 2026-05-04 00:09 | 4.85912 | -74.36600 | 12877 ft | 239 kts | 122° |
| 2026-05-04 00:09 | 4.84942 | -74.35250 | 12642 ft | 238 kts | 126° |
| 2026-05-04 00:10 | 4.83934 | -74.33932 | 12357 ft | 238 kts | 127° |
| 2026-05-04 00:10 | 4.82942 | -74.32628 | 12092 ft | 230 kts | 126° |
| 2026-05-04 00:10 | 4.82002 | -74.31387 | 11791 ft | 217 kts | 127° |
| 2026-05-04 00:10 | 4.81110 | -74.30208 | 11533 ft | 212 kts | 126° |
| 2026-05-04 00:11 | 4.80233 | -74.29050 | 11275 ft | 200 kts | 126° |
| 2026-05-04 00:11 | 4.79421 | -74.27976 | 11058 ft | 192 kts | 127° |
| 2026-05-04 00:11 | 4.78620 | -74.26918 | 10822 ft | 189 kts | 127° |
| 2026-05-04 00:11 | 4.77828 | -74.25872 | 10591 ft | 187 kts | 127° |
| 2026-05-04 00:12 | 4.77070 | -74.24871 | 10375 ft | 173 kts | 127° |
| 2026-05-04 00:12 | 4.76359 | -74.23932 | 10175 ft | 165 kts | 127° |
| 2026-05-04 00:12 | 4.75669 | -74.23021 | 9960 ft | 163 kts | 127° |
| 2026-05-04 00:12 | 4.74989 | -74.22128 | 9763 ft | 162 kts | 127° |
| 2026-05-04 00:13 | 4.74308 | -74.21231 | 9564 ft | 161 kts | 126° |
| 2026-05-04 00:13 | 4.73647 | -74.20331 | 9334 ft | 160 kts | 126° |
| 2026-05-04 00:13 | 4.72977 | -74.19434 | 9089 ft | 161 kts | 130° |
| 2026-05-04 00:13 | 4.72289 | -74.18537 | 8817 ft | 162 kts | 129° |
| 2026-05-04 00:14 | 4.71611 | -74.17642 | 8571 ft | 164 kts | 128° |
| 2026-05-04 00:14 | 4.70920 | -74.16728 | 8382 ft | 165 kts | 129° |
| 2026-05-04 00:14 | 4.70286 | -74.15911 | 8364 ft | 127 kts | 127° |
| 2026-05-04 00:14 | 4.69855 | -74.15341 | 8366 ft | 78 kts | 127° |
| 2026-05-04 00:15 | 4.69701 | -74.15036 | 8364 ft | 31 kts | 90° |
| 2026-05-04 00:15 | 4.69733 | -74.14921 | 8365 ft | 15 kts | 37° |
| 2026-05-04 00:15 | 4.69732 | -74.14848 | 8365 ft | 10 kts | 98° |
| 2026-05-04 00:15 | 4.69763 | -74.14801 | 8366 ft | 7 kts | 38° |
| 2026-05-04 00:16 | 4.69795 | -74.14777 | 8366 ft | 4 kts | 37° |
| 2026-05-04 00:16 | 4.69813 | -74.14763 | 8366 ft | 2 kts | 38° |
| 2026-05-04 00:16 | 4.69819 | -74.14758 | 8366 ft | 0 kts | 38° |
| 2026-05-04 00:16 | 4.69825 | -74.14753 | 8366 ft | 3 kts | 39° |
| 2026-05-04 00:17 | 4.69844 | -74.14734 | 8366 ft | 5 kts | 60° |
| 2026-05-04 00:17 | 4.69837 | -74.14696 | 8366 ft | 7 kts | 114° |
| 2026-05-04 00:17 | 4.69804 | -74.14651 | 8366 ft | 9 kts | 128° |
| 2026-05-04 00:17 | 4.69761 | -74.14595 | 8366 ft | 11 kts | 129° |
| 2026-05-04 00:18 | 4.69723 | -74.14545 | 8366 ft | 9 kts | 128° |
| 2026-05-04 00:18 | 4.69720 | -74.14517 | 8366 ft | 4 kts | 72° |
| 2026-05-04 00:18 | 4.69738 | -74.14504 | 8366 ft | 3 kts | 9° |
| 2026-05-04 00:18 | 4.69756 | -74.14494 | 8366 ft | 0 kts | 33° |